createdAt,value
2023-05-10T00:03:40.407Z,66.96
2023-05-10T00:06:09.299Z,66.96
2023-05-10T00:08:37.459Z,66.72
2023-05-10T00:11:05.734Z,66.88
2023-05-10T00:13:33.941Z,66.96
2023-05-10T00:16:02.189Z,67.01
2023-05-10T00:18:30.725Z,67.08
2023-05-10T00:20:58.769Z,67.01
2023-05-10T00:23:27.042Z,67.15
2023-05-10T00:25:55.238Z,67.24
2023-05-10T00:28:24.376Z,67.24
2023-05-10T00:30:52.647Z,67.36
2023-05-10T00:33:20.865Z,67.55
2023-05-10T00:35:48.952Z,67.65
2023-05-10T00:38:17.005Z,67.85
2023-05-10T00:40:45.188Z,68.05
2023-05-10T00:43:13.498Z,68.24
2023-05-10T00:45:42.498Z,68.50
2023-05-10T00:48:10.680Z,68.85
2023-05-10T00:50:39.148Z,69.07
2023-05-10T00:53:08.295Z,69.18
2023-05-10T00:55:36.764Z,69.18
2023-05-10T00:58:05.849Z,69.08
2023-05-10T01:00:34.886Z,69.04
2023-05-10T01:03:04.280Z,68.89
2023-05-10T01:05:32.585Z,68.65
2023-05-10T01:08:00.673Z,68.45
2023-05-10T01:10:28.797Z,68.40
2023-05-10T01:12:57.003Z,68.30
2023-05-10T01:15:25.396Z,68.34
2023-05-10T01:17:54.346Z,68.47
2023-05-10T01:20:22.622Z,68.47
2023-05-10T01:23:28.702Z,68.52
2023-05-10T01:26:16.062Z,68.49
2023-05-10T01:28:52.051Z,68.39
2023-05-10T01:32:17.584Z,68.25
2023-05-10T01:35:01.012Z,68.23
2023-05-10T01:37:57.574Z,68.11
2023-05-10T01:40:39.432Z,67.77
2023-05-10T01:43:18.835Z,67.78
2023-05-10T01:46:04.908Z,67.39
2023-05-10T01:48:34.163Z,67.18
2023-05-10T01:51:03.154Z,66.97
2023-05-10T01:53:34.631Z,66.80
2023-05-10T01:56:04.081Z,66.58
2023-05-10T01:58:35.285Z,66.32
2023-05-10T02:01:05.550Z,66.25
2023-05-10T02:03:37.004Z,66.22
2023-05-10T02:06:07.186Z,66.08
2023-05-10T02:08:38.064Z,65.90
2023-05-10T02:11:07.023Z,65.75
2023-05-10T02:13:38.545Z,65.88
2023-05-10T02:16:08.556Z,66.05
2023-05-10T02:18:37.359Z,65.93
2023-05-10T02:21:05.970Z,65.67
2023-05-10T02:23:35.693Z,65.37
2023-05-10T02:26:06.958Z,65.19
2023-05-10T02:28:37.894Z,64.56
2023-05-10T02:31:07.768Z,64.22
2023-05-10T02:33:39.703Z,63.78
2023-05-10T02:36:10.047Z,63.44
2023-05-10T02:38:38.813Z,62.91
2023-05-10T02:41:10.932Z,62.63
2023-05-10T02:43:41.701Z,62.47
2023-05-10T02:46:10.152Z,62.40
2023-05-10T02:48:38.475Z,62.41
2023-05-10T02:51:09.243Z,62.18
2023-05-10T02:53:42.619Z,62.09
2023-05-10T02:56:16.365Z,62.18
2023-05-10T02:58:44.585Z,62.59
2023-05-10T03:01:12.904Z,62.82
2023-05-10T03:03:41.251Z,62.86
2023-05-10T03:06:09.913Z,62.84
2023-05-10T03:08:38.472Z,62.73
2023-05-10T03:11:09.505Z,62.61
2023-05-10T03:13:46.764Z,62.42
2023-05-10T03:16:26.805Z,62.29
2023-05-10T03:19:07.852Z,62.06
2023-05-10T03:21:39.885Z,61.75
2023-05-10T03:24:12.873Z,61.38
2023-05-10T03:26:44.698Z,61.22
2023-05-10T03:29:15.249Z,61.12
2023-05-10T03:31:43.703Z,60.69
2023-05-10T03:34:11.894Z,60.32
2023-05-10T03:36:40.384Z,59.91
2023-05-10T03:39:08.465Z,59.68
2023-05-10T03:41:36.644Z,58.54
2023-05-10T03:44:04.940Z,57.69
2023-05-10T03:46:33.129Z,57.55
2023-05-10T03:49:02.031Z,57.32
2023-05-10T03:51:30.916Z,56.92
2023-05-10T03:53:59.159Z,56.71
2023-05-10T03:56:27.214Z,56.07
2023-05-10T03:58:55.271Z,55.56
2023-05-10T04:01:23.861Z,55.54
2023-05-10T04:03:52.677Z,55.61
2023-05-10T04:06:21.090Z,55.76
2023-05-10T04:08:49.324Z,55.34
2023-05-10T04:11:17.735Z,55.48
2023-05-10T04:13:45.795Z,55.80
2023-05-10T04:16:14.161Z,56.32
2023-05-10T04:18:42.526Z,56.59
2023-05-10T04:21:14.283Z,56.13
2023-05-10T04:23:42.918Z,55.17
2023-05-10T04:26:11.084Z,54.71
2023-05-10T04:28:39.635Z,54.64
2023-05-10T04:31:10.914Z,54.38
2023-05-10T04:33:39.163Z,54.12
2023-05-10T04:36:07.389Z,53.93
2023-05-10T04:38:36.380Z,53.68
2023-05-10T04:41:09.206Z,53.73
2023-05-10T04:43:39.435Z,53.26
2023-05-10T04:46:08.340Z,53.07
2023-05-10T04:48:36.881Z,53.02
2023-05-10T04:51:05.266Z,53.04
2023-05-10T04:53:33.999Z,53.13
2023-05-10T04:56:02.124Z,53.14
2023-05-10T04:58:30.498Z,53.09
2023-05-10T05:00:58.565Z,53.07
2023-05-10T05:03:27.269Z,52.92
2023-05-10T05:05:57.229Z,52.80
2023-05-10T05:08:25.457Z,52.81
2023-05-10T05:10:53.661Z,52.77
2023-05-10T05:13:22.433Z,52.56
2023-05-10T05:15:50.743Z,52.48
2023-05-10T05:18:18.964Z,52.28
2023-05-10T05:20:47.198Z,52.57
2023-05-10T05:23:15.660Z,52.87
2023-05-10T05:25:43.782Z,53.15
2023-05-10T05:28:12.315Z,53.12
2023-05-10T05:30:40.421Z,52.98
2023-05-10T05:33:08.559Z,52.83
2023-05-10T05:35:36.796Z,52.81
2023-05-10T05:38:04.935Z,52.81
2023-05-10T05:40:33.167Z,52.93
2023-05-10T05:43:01.543Z,52.76
2023-05-10T05:45:30.050Z,52.85
2023-05-10T05:47:58.440Z,52.93
2023-05-10T05:50:26.680Z,52.95
2023-05-10T05:52:54.822Z,53.04
2023-05-10T05:55:23.064Z,53.18
2023-05-10T05:57:51.422Z,54.04
2023-05-10T06:00:22.745Z,54.74
2023-05-10T06:02:51.056Z,55.57
2023-05-10T06:05:19.555Z,55.81
2023-05-10T06:07:47.768Z,56.09
2023-05-10T06:10:16.159Z,55.76
2023-05-10T06:12:45.076Z,55.15
2023-05-10T06:15:13.509Z,54.84
2023-05-10T06:17:42.362Z,54.70
2023-05-10T06:20:10.995Z,54.45
2023-05-10T06:22:39.211Z,54.28
2023-05-10T06:25:08.119Z,53.91
2023-05-10T06:27:36.250Z,53.72
2023-05-10T06:30:12.867Z,53.89
2023-05-10T06:32:42.814Z,53.96
2023-05-10T06:35:11.166Z,54.01
2023-05-10T06:37:39.414Z,54.04
2023-05-10T06:40:08.558Z,54.11
2023-05-10T06:42:36.874Z,54.14
2023-05-10T06:45:05.700Z,54.17
2023-05-10T06:47:34.730Z,54.07
2023-05-10T06:50:04.711Z,53.93
2023-05-10T06:52:33.165Z,53.97
2023-05-10T06:55:01.869Z,54.00
2023-05-10T06:57:31.779Z,53.97
2023-05-10T07:00:00.922Z,53.89
2023-05-10T07:02:29.398Z,53.67
2023-05-10T07:05:00.846Z,53.57
2023-05-10T07:07:30.885Z,53.21
2023-05-10T07:09:59.608Z,53.05
2023-05-10T07:12:28.036Z,52.69
2023-05-10T07:14:56.233Z,52.44
2023-05-10T07:17:24.420Z,52.40
2023-05-10T07:19:52.968Z,52.24
2023-05-10T07:22:21.094Z,52.32
2023-05-10T07:24:49.222Z,52.27
2023-05-10T07:27:17.339Z,51.85
2023-05-10T07:29:46.087Z,51.44
2023-05-10T07:32:14.392Z,50.60
2023-05-10T07:34:44.741Z,50.12
2023-05-10T07:37:12.920Z,49.97
2023-05-10T07:39:41.563Z,49.74
2023-05-10T07:42:09.659Z,49.33
2023-05-10T07:44:38.322Z,48.53
2023-05-10T07:47:07.571Z,48.23
2023-05-10T07:49:35.748Z,47.62
2023-05-10T07:52:04.912Z,47.53
2023-05-10T07:54:33.107Z,47.40
2023-05-10T07:57:02.004Z,47.57
2023-05-10T07:59:30.164Z,47.85
2023-05-10T08:01:59.665Z,47.19
2023-05-10T08:04:28.333Z,47.41
2023-05-10T08:06:57.445Z,47.05
2023-05-10T08:09:25.610Z,46.54
2023-05-10T08:11:54.645Z,46.36
2023-05-10T08:14:23.360Z,46.45
2023-05-10T08:16:51.543Z,46.53
2023-05-10T08:19:19.853Z,45.68
2023-05-10T08:21:48.696Z,44.74
2023-05-10T08:24:16.878Z,43.29
2023-05-10T08:26:45.185Z,44.00
2023-05-10T08:29:13.346Z,44.06
2023-05-10T08:31:42.789Z,44.55
2023-05-10T08:34:11.607Z,45.00
2023-05-10T08:36:41.253Z,45.33
2023-05-10T08:39:22.949Z,45.69
2023-05-10T08:42:05.403Z,45.24
2023-05-10T08:44:35.362Z,45.11
2023-05-10T08:47:07.161Z,44.96
2023-05-10T08:49:38.063Z,45.15
2023-05-10T08:52:08.516Z,45.41
2023-05-10T08:54:37.899Z,45.44
2023-05-10T08:57:06.882Z,45.12
2023-05-10T08:59:36.570Z,44.65
2023-05-10T09:02:06.550Z,44.90
2023-05-10T09:04:42.046Z,44.89
2023-05-10T09:07:13.605Z,44.31
2023-05-10T09:09:46.495Z,44.58
2023-05-10T09:12:14.779Z,44.41
2023-05-10T09:14:44.743Z,44.39
2023-05-10T09:17:14.144Z,44.87
2023-05-10T09:19:42.441Z,45.46
2023-05-10T09:22:11.146Z,45.54
2023-05-10T09:24:39.278Z,44.99
2023-05-10T09:27:07.436Z,44.96
2023-05-10T09:29:43.948Z,44.54
2023-05-10T09:32:13.915Z,44.77
2023-05-10T09:34:42.198Z,45.34
2023-05-10T09:37:11.477Z,45.74
2023-05-10T09:39:40.254Z,45.24
2023-05-10T09:42:10.513Z,44.61
2023-05-10T09:44:39.117Z,44.41
2023-05-10T09:47:07.713Z,45.11
2023-05-10T09:49:36.873Z,44.92
2023-05-10T09:52:08.483Z,45.49
2023-05-10T09:54:37.475Z,45.89
2023-05-10T09:57:05.781Z,45.75
2023-05-10T09:59:35.434Z,45.67
2023-05-10T10:02:04.234Z,45.66
2023-05-10T10:04:33.274Z,45.04
2023-05-10T10:07:05.925Z,44.73
2023-05-10T10:09:35.884Z,45.07
2023-05-10T10:12:04.818Z,45.41
2023-05-10T10:14:36.941Z,45.21
2023-05-10T10:17:08.624Z,45.41
2023-05-10T10:19:38.491Z,45.10
2023-05-10T10:22:07.178Z,45.12
2023-05-10T10:24:35.533Z,45.54
2023-05-10T10:27:29.209Z,45.53
2023-05-10T10:30:32.749Z,44.91
2023-05-10T10:33:27.392Z,45.13
2023-05-10T10:35:59.218Z,45.48
2023-05-10T10:38:57.394Z,45.24
2023-05-10T10:41:42.165Z,45.30
2023-05-10T10:44:27.379Z,44.69
2023-05-10T10:47:14.385Z,45.06
2023-05-10T10:49:49.931Z,44.68
2023-05-10T10:52:24.243Z,44.95
2023-05-10T10:55:20.020Z,45.03
2023-05-10T10:57:54.479Z,44.88
2023-05-10T11:00:27.570Z,44.62
2023-05-10T11:03:08.578Z,44.62
2023-05-10T11:05:40.457Z,44.12
2023-05-10T11:08:11.150Z,44.31
2023-05-10T11:10:44.992Z,44.25
2023-05-10T11:13:13.891Z,44.42
2023-05-10T11:15:49.938Z,44.86
2023-05-10T11:18:20.169Z,45.11
2023-05-10T11:20:53.998Z,44.97
2023-05-10T11:23:23.647Z,44.73
2023-05-10T11:25:51.659Z,44.61
2023-05-10T11:28:20.873Z,44.05
2023-05-10T11:30:49.868Z,44.13
2023-05-10T11:33:19.809Z,43.99
2023-05-10T11:35:48.692Z,43.15
2023-05-10T11:38:17.083Z,42.71
2023-05-10T11:40:45.337Z,43.13
2023-05-10T11:43:13.808Z,43.16
2023-05-10T11:45:42.929Z,42.85
2023-05-10T11:48:11.189Z,42.98
2023-05-10T11:50:39.616Z,42.33
2023-05-10T11:53:07.779Z,41.84
2023-05-10T11:55:36.422Z,41.80
2023-05-10T11:58:05.177Z,42.12
2023-05-10T12:00:33.722Z,41.59
2023-05-10T12:03:02.930Z,40.29
2023-05-10T12:05:36.938Z,40.37
2023-05-10T12:08:16.517Z,41.18
2023-05-10T12:10:45.562Z,40.48
2023-05-10T12:13:14.479Z,40.51
2023-05-10T12:15:44.008Z,40.91
2023-05-10T12:18:16.107Z,41.48
2023-05-10T12:20:46.995Z,41.64
2023-05-10T12:23:16.713Z,41.58
2023-05-10T12:25:47.532Z,41.22
2023-05-10T12:28:20.876Z,41.81
2023-05-10T12:30:49.491Z,42.49
2023-05-10T12:33:18.495Z,42.21
2023-05-10T12:35:50.275Z,41.93
2023-05-10T12:38:47.264Z,41.81
2023-05-10T12:41:18.381Z,41.91
2023-05-10T12:43:46.898Z,42.32
2023-05-10T12:46:17.807Z,41.91
2023-05-10T12:48:47.607Z,41.73
2023-05-10T12:51:16.215Z,41.69
2023-05-10T12:53:46.088Z,41.44
2023-05-10T12:56:15.577Z,42.01
2023-05-10T12:58:43.613Z,42.44
2023-05-10T13:01:12.616Z,42.27
2023-05-10T13:03:41.810Z,42.72
2023-05-10T13:06:10.532Z,42.58
2023-05-10T13:08:39.217Z,42.42
2023-05-10T13:11:07.621Z,42.46
2023-05-10T13:13:36.227Z,43.23
2023-05-10T13:16:04.568Z,43.53
2023-05-10T13:18:32.776Z,43.74
2023-05-10T13:21:01.529Z,43.40
2023-05-10T13:23:29.820Z,43.34
2023-05-10T13:25:58.606Z,43.45
2023-05-10T13:28:26.817Z,44.09
2023-05-10T13:30:54.807Z,44.17
2023-05-10T13:33:23.170Z,43.82
2023-05-10T13:35:54.350Z,44.22
2023-05-10T13:38:23.965Z,44.55
2023-05-10T13:40:52.018Z,44.74
2023-05-10T13:43:20.541Z,44.21
2023-05-10T13:45:48.939Z,44.51
2023-05-10T13:48:16.995Z,44.78
2023-05-10T13:50:45.091Z,44.01
2023-05-10T13:53:13.626Z,43.18
2023-05-10T13:55:41.746Z,43.98
2023-05-10T13:58:09.758Z,44.17
2023-05-10T14:00:38.168Z,43.87
2023-05-10T14:03:06.892Z,43.85
2023-05-10T14:05:35.001Z,43.91
2023-05-10T14:08:03.436Z,43.88
2023-05-10T14:10:31.582Z,43.52
2023-05-10T14:13:04.141Z,43.73
2023-05-10T14:15:32.628Z,43.81
2023-05-10T14:18:00.773Z,44.19
2023-05-10T14:20:29.118Z,43.74
2023-05-10T14:22:57.416Z,43.84
2023-05-10T14:25:25.768Z,43.84
2023-05-10T14:27:54.188Z,44.31
2023-05-10T14:30:22.777Z,44.43
2023-05-10T14:32:50.894Z,44.50
2023-05-10T14:35:20.022Z,44.63
2023-05-10T14:37:48.873Z,44.97
2023-05-10T14:40:17.231Z,45.33
2023-05-10T14:42:45.534Z,45.88
2023-05-10T14:45:14.152Z,46.02
2023-05-10T14:47:42.309Z,45.71
2023-05-10T14:50:14.743Z,45.68
2023-05-10T14:52:47.133Z,45.59
2023-05-10T14:55:16.567Z,45.99
2023-05-10T14:57:45.561Z,46.11
2023-05-10T15:00:14.542Z,45.83
2023-05-10T15:02:43.494Z,45.55
2023-05-10T15:05:13.309Z,46.19
2023-05-10T15:07:42.985Z,45.35
2023-05-10T15:10:11.754Z,45.52
2023-05-10T15:12:40.765Z,45.58
2023-05-10T15:15:09.415Z,45.58
2023-05-10T15:17:37.559Z,45.01
2023-05-10T15:20:06.545Z,45.35
2023-05-10T15:22:35.190Z,45.71
2023-05-10T15:25:03.913Z,45.54
2023-05-10T15:27:31.968Z,45.59
2023-05-10T15:30:01.274Z,46.29
2023-05-10T15:32:29.506Z,46.50
2023-05-10T15:34:57.624Z,46.67
2023-05-10T15:37:25.701Z,46.47
2023-05-10T15:39:55.800Z,46.44
2023-05-10T15:42:25.042Z,46.79
2023-05-10T15:44:53.452Z,47.19
2023-05-10T15:47:21.608Z,47.39
2023-05-10T15:49:49.747Z,47.36
2023-05-10T15:52:17.814Z,47.52
2023-05-10T15:54:46.830Z,47.41
2023-05-10T15:57:15.110Z,47.55
2023-05-10T15:59:43.126Z,47.48
2023-05-10T16:02:11.379Z,47.66
2023-05-10T16:04:40.306Z,47.33
2023-05-10T16:07:08.556Z,46.97
2023-05-10T16:09:37.919Z,47.17
2023-05-10T16:12:06.737Z,47.27
2023-05-10T16:14:35.286Z,47.31
2023-05-10T16:17:06.811Z,47.68
2023-05-10T16:19:35.575Z,47.96
2023-05-10T16:22:05.543Z,48.24
2023-05-10T16:24:34.792Z,48.52
2023-05-10T16:27:05.724Z,48.72
2023-05-10T16:29:33.895Z,48.51
2023-05-10T16:32:02.329Z,48.43
2023-05-10T16:34:31.291Z,48.89
2023-05-10T16:36:59.950Z,48.95
2023-05-10T16:39:29.236Z,49.23
2023-05-10T16:41:58.402Z,49.44
2023-05-10T16:44:27.265Z,49.61
2023-05-10T16:46:56.056Z,49.76
2023-05-10T16:49:26.117Z,50.04
2023-05-10T16:51:55.415Z,50.19
2023-05-10T16:54:23.563Z,50.21
2023-05-10T16:56:52.567Z,50.38
2023-05-10T16:59:21.124Z,50.63
2023-05-10T17:01:49.347Z,50.63
2023-05-10T17:04:17.891Z,50.83
2023-05-10T17:06:46.121Z,50.82
2023-05-10T17:09:15.484Z,51.12
2023-05-10T17:11:43.803Z,51.16
2023-05-10T17:14:12.369Z,51.18
2023-05-10T17:16:42.302Z,51.42
2023-05-10T17:19:11.272Z,51.80
2023-05-10T17:21:40.724Z,51.75
2023-05-10T17:24:09.060Z,51.88
2023-05-10T17:26:37.671Z,52.17
2023-05-10T17:29:06.538Z,52.16
2023-05-10T17:31:34.787Z,52.45
2023-05-10T17:34:05.478Z,52.74
2023-05-10T17:36:34.074Z,52.99
2023-05-10T17:39:02.352Z,53.35
2023-05-10T17:41:30.822Z,53.64
2023-05-10T17:43:59.361Z,54.01
2023-05-10T17:46:27.707Z,54.45
2023-05-10T17:48:56.430Z,54.60
2023-05-10T17:51:24.745Z,54.73
2023-05-10T17:53:53.038Z,55.00
2023-05-10T17:56:21.589Z,55.02
2023-05-10T17:58:49.642Z,55.22
2023-05-10T18:01:17.819Z,55.60
2023-05-10T18:03:46.100Z,55.79
2023-05-10T18:06:14.642Z,55.94
2023-05-10T18:08:43.341Z,55.85
2023-05-10T18:11:11.827Z,55.94
2023-05-10T18:13:40.167Z,56.11
2023-05-10T18:16:08.362Z,56.16
2023-05-10T18:18:36.659Z,56.45
2023-05-10T18:21:04.778Z,56.70
2023-05-10T18:23:33.692Z,56.78
2023-05-10T18:26:02.613Z,57.00
2023-05-10T18:28:31.180Z,57.15
2023-05-10T18:30:59.497Z,57.19
2023-05-10T18:33:28.180Z,57.48
2023-05-10T18:35:56.504Z,57.57
2023-05-10T18:38:25.806Z,57.71
2023-05-10T18:40:53.950Z,57.77
2023-05-10T18:43:22.541Z,58.23
2023-05-10T18:45:51.282Z,58.34
2023-05-10T18:48:19.969Z,58.64
2023-05-10T18:50:48.201Z,58.79
2023-05-10T18:53:17.629Z,59.05
2023-05-10T18:55:46.694Z,59.25
2023-05-10T18:58:15.960Z,59.57
2023-05-10T19:00:45.057Z,59.65
2023-05-10T19:03:14.477Z,59.94
2023-05-10T19:05:43.739Z,60.14
2023-05-10T19:08:11.847Z,60.24
2023-05-10T19:10:40.264Z,60.37
2023-05-10T19:13:09.118Z,60.46
2023-05-10T19:15:38.856Z,60.44
2023-05-10T19:18:09.674Z,60.45
2023-05-10T19:20:40.874Z,60.90
2023-05-10T19:23:11.449Z,61.07
2023-05-10T19:25:39.605Z,61.23
2023-05-10T19:28:08.920Z,61.38
2023-05-10T19:30:38.118Z,61.58
2023-05-10T19:33:06.662Z,61.73
2023-05-10T19:35:34.813Z,62.05
2023-05-10T19:38:03.472Z,62.12
2023-05-10T19:40:32.219Z,62.39
2023-05-10T19:43:02.599Z,62.34
2023-05-10T19:45:31.249Z,62.33
2023-05-10T19:48:02.474Z,62.27
2023-05-10T19:50:30.730Z,62.14
2023-05-10T19:52:59.717Z,62.21
2023-05-10T19:55:30.556Z,62.31
2023-05-10T19:57:59.836Z,62.63
2023-05-10T20:00:28.745Z,62.81
2023-05-10T20:02:56.791Z,63.11
2023-05-10T20:05:25.250Z,63.26
2023-05-10T20:07:54.912Z,63.45
2023-05-10T20:10:25.189Z,63.43
2023-05-10T20:12:54.640Z,63.26
2023-05-10T20:15:23.693Z,63.27
2023-05-10T20:17:52.493Z,63.25
2023-05-10T20:20:21.676Z,63.24
2023-05-10T20:22:51.667Z,62.97
2023-05-10T20:25:20.242Z,62.94
2023-05-10T20:27:48.904Z,62.96
2023-05-10T20:30:17.160Z,62.74
2023-05-10T20:32:45.954Z,62.67
2023-05-10T20:35:14.144Z,62.46
2023-05-10T20:37:42.626Z,62.17
2023-05-10T20:40:11.276Z,62.21
2023-05-10T20:42:39.499Z,62.13
2023-05-10T20:45:08.170Z,62.00
2023-05-10T20:47:36.404Z,61.72
2023-05-10T20:50:05.281Z,61.59
2023-05-10T20:52:33.326Z,61.50
2023-05-10T20:55:01.974Z,61.51
2023-05-10T20:57:30.274Z,61.42
2023-05-10T20:59:58.360Z,61.53
2023-05-10T21:02:26.566Z,61.48
2023-05-10T21:04:57.125Z,61.42
2023-05-10T21:07:26.671Z,61.43
2023-05-10T21:09:54.773Z,61.62
2023-05-10T21:12:23.828Z,61.59
2023-05-10T21:14:52.539Z,61.65
2023-05-10T21:17:21.266Z,61.81
2023-05-10T21:19:49.493Z,61.97
2023-05-10T21:22:18.338Z,61.97
2023-05-10T21:24:47.215Z,62.15
2023-05-10T21:27:15.467Z,62.27
2023-05-10T21:29:43.752Z,62.42
2023-05-10T21:32:12.321Z,62.40
2023-05-10T21:34:40.534Z,62.53
2023-05-10T21:37:08.523Z,62.72
2023-05-10T21:39:38.110Z,62.61
2023-05-10T21:42:06.139Z,62.64
2023-05-10T21:44:34.180Z,62.66
2023-05-10T21:47:02.734Z,62.52
2023-05-10T21:49:31.156Z,62.61
2023-05-10T21:51:59.543Z,62.62
2023-05-10T21:54:28.507Z,62.71
2023-05-10T21:56:58.260Z,62.70
2023-05-10T21:59:26.761Z,62.79
2023-05-10T22:01:55.322Z,62.88
2023-05-10T22:04:23.823Z,63.03
2023-05-10T22:06:51.957Z,62.99
2023-05-10T22:09:20.201Z,63.20
2023-05-10T22:11:48.204Z,63.28
2023-05-10T22:14:16.467Z,63.26
2023-05-10T22:16:44.809Z,63.22
2023-05-10T22:19:12.972Z,63.26
2023-05-10T22:21:41.606Z,63.22
2023-05-10T22:24:10.291Z,63.12
2023-05-10T22:26:40.443Z,63.00
2023-05-10T22:29:08.535Z,62.89
2023-05-10T22:31:37.236Z,62.85
2023-05-10T22:34:05.932Z,63.00
2023-05-10T22:36:34.155Z,62.87
2023-05-10T22:39:02.349Z,62.96
2023-05-10T22:41:30.336Z,63.21
2023-05-10T22:43:58.625Z,63.26
2023-05-10T22:46:26.906Z,63.15
2023-05-10T22:48:55.685Z,62.97
2023-05-10T22:51:23.815Z,63.01
2023-05-10T22:53:52.023Z,62.71
2023-05-10T22:56:21.478Z,62.69
2023-05-10T22:58:50.361Z,62.76
2023-05-10T23:01:18.492Z,62.72
2023-05-10T23:03:46.740Z,62.70
2023-05-10T23:06:16.600Z,62.78
2023-05-10T23:08:44.729Z,63.07
2023-05-10T23:11:12.800Z,63.19
2023-05-10T23:13:41.386Z,63.25
2023-05-10T23:16:10.309Z,63.36
2023-05-10T23:18:38.558Z,63.37
2023-05-10T23:21:06.628Z,63.56
2023-05-10T23:23:35.313Z,63.73
2023-05-10T23:26:03.344Z,63.69
2023-05-10T23:28:32.247Z,63.65
2023-05-10T23:31:01.059Z,63.63
2023-05-10T23:33:29.819Z,63.65
2023-05-10T23:35:57.882Z,63.82
2023-05-10T23:38:26.911Z,64.02
2023-05-10T23:40:55.426Z,63.90
2023-05-10T23:43:23.490Z,63.96
2023-05-10T23:45:56.958Z,63.92
2023-05-10T23:48:25.133Z,64.08
2023-05-10T23:50:53.406Z,63.98
2023-05-10T23:53:21.534Z,63.95
2023-05-10T23:55:49.991Z,63.99
2023-05-10T23:58:18.553Z,63.97
